Time;durP1;ratioP1;P1;durP2;ratioP2;P2;SDS_P1;SDS_P2;PMS_P1;PMS_P2;Temp;Humidity;BMP_temperature;BMP_pressure;BME280_temperature;BME280_humidity;BME280_pressure;Samples;Min_cycle;Max_cycle;Signal;HPM_P1;HPM_P2
2022/07/29 00:02:57;;;;;;;6.80;4.00;;;;;;;11.74;64.54;100664.08;130180;1271;109299;-71
2022/07/29 00:06:02;;;;;;;6.30;3.70;;;;;;;11.73;64.62;100664.35;130198;1268;108840;-71
2022/07/29 00:09:08;;;;;;;5.20;3.70;;;;;;;11.69;64.46;100663.90;130066;1270;108626;-71
2022/07/29 00:12:13;;;;;;;6.20;3.80;;;;;;;11.63;64.47;100662.09;130057;1271;108911;-71
2022/07/29 00:15:19;;;;;;;6.30;3.40;;;;;;;11.64;64.45;100661.36;130182;1271;108793;-72
2022/07/29 00:18:24;;;;;;;5.10;3.70;;;;;;;11.59;64.51;100660.94;130225;1271;108941;-72
2022/07/29 00:21:29;;;;;;;7.60;4.30;;;;;;;11.53;64.72;100664.05;130192;1270;108645;-72
2022/07/29 00:24:35;;;;;;;6.10;3.70;;;;;;;11.44;64.92;100664.73;130131;1271;108895;-72
2022/07/29 00:27:40;;;;;;;5.60;3.50;;;;;;;11.46;65.07;100669.34;130116;1270;108443;-71
2022/07/29 00:30:46;;;;;;;6.40;3.70;;;;;;;11.44;64.99;100664.87;130078;1271;108675;-72
2022/07/29 00:33:51;;;;;;;6.80;3.90;;;;;;;11.44;65.09;100663.60;130218;1271;108650;-72
2022/07/29 00:36:57;;;;;;;5.70;3.80;;;;;;;11.44;64.94;100664.70;130193;1271;110511;-72
2022/07/29 00:40:03;;;;;;;6.40;3.80;;;;;;;11.31;65.30;100669.52;130212;1269;108107;-72
2022/07/29 00:43:08;;;;;;;6.60;3.60;;;;;;;11.22;65.12;100672.88;130223;1271;108786;-73
2022/07/29 00:46:14;;;;;;;4.80;3.30;;;;;;;11.16;65.68;100674.48;130170;1271;108960;-72
2022/07/29 00:49:19;;;;;;;7.70;3.80;;;;;;;11.17;65.47;100676.66;130245;1271;106974;-73
2022/07/29 00:52:25;;;;;;;5.10;3.50;;;;;;;11.19;65.42;100678.30;130194;1271;108846;-74
2022/07/29 00:55:31;;;;;;;8.80;4.20;;;;;;;11.26;65.22;100680.29;130172;1271;108645;-73
2022/07/29 00:58:36;;;;;;;5.50;3.80;;;;;;;11.32;65.47;100679.02;130160;1270;108745;-73
2022/07/29 01:01:42;;;;;;;5.50;4.00;;;;;;;11.26;65.17;100680.64;130141;1271;109076;-73
2022/07/29 01:04:47;;;;;;;7.80;3.90;;;;;;;11.15;65.22;100679.22;130195;1271;109077;-73
2022/07/29 01:07:58;;;;;;;7.40;3.80;;;;;;;11.05;65.34;100678.96;130239;1270;109135;-73
2022/07/29 01:11:04;;;;;;;6.30;4.20;;;;;;;10.89;65.66;100676.65;130208;1271;108749;-72
2022/07/29 01:14:11;;;;;;;6.60;4.00;;;;;;;10.79;65.69;100679.02;130174;1270;107785;-73
2022/07/29 01:17:22;;;;;;;6.80;3.40;;;;;;;10.74;65.73;100681.52;130193;1270;107044;-72
2022/07/29 01:20:50;;;;;;;6.10;4.00;;;;;;;10.70;65.74;100681.52;130214;1270;108740;-72
2022/07/29 01:24:16;;;;;;;7.00;3.80;;;;;;;10.72;66.21;100676.48;130161;1270;108588;-72
2022/07/29 01:27:40;;;;;;;7.40;3.90;;;;;;;10.73;66.09;100671.65;130261;1270;107487;-73
2022/07/29 01:30:48;;;;;;;6.70;4.10;;;;;;;10.74;66.19;100676.11;130071;1271;107876;-72
2022/07/29 01:33:59;;;;;;;8.40;4.30;;;;;;;10.65;66.04;100672.75;130126;1271;108997;-70
2022/07/29 01:37:13;;;;;;;7.10;4.00;;;;;;;10.65;66.11;100673.39;130080;1271;109697;-71
2022/07/29 01:40:24;;;;;;;5.90;3.80;;;;;;;10.62;66.18;100675.84;130178;1271;109088;-71
2022/07/29 01:43:37;;;;;;;6.10;3.70;;;;;;;10.53;66.06;100672.36;130165;1270;107651;-72
2022/07/29 01:46:48;;;;;;;5.50;3.20;;;;;;;10.47;66.11;100675.98;130158;1270;108610;-72
2022/07/29 01:49:58;;;;;;;7.20;3.60;;;;;;;10.41;66.50;100675.99;130168;1271;108862;-72
2022/07/29 01:53:10;;;;;;;6.10;3.30;;;;;;;10.42;66.46;100678.41;130191;1270;108621;-72
2022/07/29 01:56:17;;;;;;;4.70;3.30;;;;;;;10.48;66.50;100680.67;130060;1271;108675;-71
2022/07/29 01:59:24;;;;;;;4.80;3.40;;;;;;;10.51;66.35;100675.10;130158;1271;109021;-70
2022/07/29 02:02:31;;;;;;;5.80;3.50;;;;;;;10.43;66.30;100668.86;130024;1271;108451;-72
2022/07/29 02:05:38;;;;;;;5.20;3.70;;;;;;;10.34;66.35;100667.95;130208;1269;108693;-72
2022/07/29 02:08:46;;;;;;;6.20;3.80;;;;;;;10.32;66.35;100670.61;130224;1271;108829;-71
2022/07/29 02:11:55;;;;;;;5.20;3.90;;;;;;;10.20;66.83;100669.14;130200;1270;106851;-72
2022/07/29 02:15:05;;;;;;;6.50;3.70;;;;;;;10.19;66.64;100674.55;130175;1270;108929;-72
2022/07/29 02:18:14;;;;;;;5.20;3.10;;;;;;;10.17;66.53;100673.16;130148;1271;108705;-72
2022/07/29 02:21:23;;;;;;;5.90;3.40;;;;;;;10.12;66.58;100670.65;130175;1270;108487;-71
2022/07/29 02:24:31;;;;;;;5.20;3.30;;;;;;;10.02;66.73;100672.77;130075;1271;108953;-74
2022/07/29 02:27:38;;;;;;;6.00;3.60;;;;;;;9.90;66.60;100675.30;130159;1269;107006;-73
2022/07/29 02:30:45;;;;;;;5.60;3.70;;;;;;;9.87;66.88;100675.86;130165;1271;108990;-72
2022/07/29 02:33:51;;;;;;;6.10;3.80;;;;;;;9.91;66.79;100677.67;130324;1271;107687;-72
2022/07/29 02:36:59;;;;;;;7.90;4.00;;;;;;;9.93;66.81;100677.31;130239;1269;108100;-73
2022/07/29 02:40:07;;;;;;;5.40;3.70;;;;;;;9.94;66.87;100677.02;130249;1271;108771;-75
2022/07/29 02:43:13;;;;;;;4.70;3.30;;;;;;;9.95;66.91;100676.55;130198;1271;108737;-75
2022/07/29 02:46:26;;;;;;;5.60;3.50;;;;;;;9.90;67.06;100672.05;130177;1269;107596;-76
2022/07/29 02:49:38;;;;;;;5.40;3.90;;;;;;;9.87;67.08;100671.99;130185;1271;108676;-74
2022/07/29 02:52:50;;;;;;;5.60;3.40;;;;;;;9.97;67.23;100668.06;130234;1271;107296;-74
2022/07/29 02:55:57;;;;;;;;;;;;;;;10.08;69.13;100670.11;130202;1271;108885;-74
2022/07/29 02:59:08;;;;;;;5.70;3.50;;;;;;;10.38;67.94;100668.28;130322;1268;108758;-77
2022/07/29 03:02:17;;;;;;;7.10;3.60;;;;;;;10.35;67.67;100662.80;130415;1268;108799;-73
2022/07/29 03:05:23;;;;;;;9.50;5.10;;;;;;;10.46;68.69;100658.80;130405;1268;107842;-74
2022/07/29 03:08:30;;;;;;;12.10;5.60;;;;;;;10.87;70.71;100651.05;130289;1268;108053;-75
2022/07/29 03:11:37;;;;;;;5.50;3.30;;;;;;;11.27;70.05;100655.08;130484;1268;108991;-74
2022/07/29 03:14:43;;;;;;;4.80;3.80;;;;;;;11.38;67.78;100655.95;130258;1268;108760;-73
2022/07/29 03:17:49;;;;;;;5.00;3.70;;;;;;;11.43;68.62;100657.62;130209;1268;108763;-73
2022/07/29 03:20:55;;;;;;;5.50;3.70;;;;;;;11.75;69.83;100660.96;130248;1268;109128;-73
2022/07/29 03:24:01;;;;;;;5.90;3.90;;;;;;;12.13;68.29;100657.39;130255;1268;107336;-73
2022/07/29 03:27:06;;;;;;;6.80;4.10;;;;;;;12.20;67.20;100662.77;130241;1268;108735;-73
2022/07/29 03:30:14;;;;;;;5.90;3.60;;;;;;;12.21;67.52;100661.44;130231;1268;108714;-74
2022/07/29 03:33:19;;;;;;;5.10;3.60;;;;;;;12.38;69.05;100660.66;130199;1268;108948;-73
2022/07/29 03:36:25;;;;;;;6.90;3.20;;;;;;;12.68;68.38;100662.55;130221;1268;108829;-73
2022/07/29 03:39:34;;;;;;;4.40;3.40;;;;;;;12.86;68.90;100668.17;130182;1268;109122;-73
2022/07/29 03:42:43;;;;;;;6.80;3.70;;;;;;;13.04;67.82;100668.17;130287;1268;109064;-73
2022/07/29 03:45:53;;;;;;;6.10;3.90;;;;;;;13.18;68.15;100664.96;130216;1268;107387;-73
2022/07/29 03:49:04;;;;;;;5.60;3.60;;;;;;;13.48;68.34;100667.73;130224;1268;107624;-73
2022/07/29 03:52:10;;;;;;;5.10;3.90;;;;;;;13.75;67.98;100668.94;130192;1268;108701;-74
2022/07/29 03:55:16;;;;;;;4.30;3.20;;;;;;;14.00;67.04;100664.52;130388;1268;109718;-73
2022/07/29 03:58:23;;;;;;;5.90;3.90;;;;;;;14.19;66.97;100658.38;130347;1268;108975;-74
2022/07/29 04:01:30;;;;;;;6.90;3.30;;;;;;;14.49;67.00;100660.84;130352;1268;108792;-73
2022/07/29 04:04:37;;;;;;;4.40;3.10;;;;;;;14.78;66.45;100661.89;130346;1268;108831;-74
2022/07/29 04:07:43;;;;;;;4.50;3.10;;;;;;;15.03;66.48;100657.92;130361;1268;108884;-74
2022/07/29 04:10:49;;;;;;;4.70;2.70;;;;;;;15.33;66.59;100653.67;130340;1268;108936;-73
2022/07/29 04:13:55;;;;;;;4.10;3.00;;;;;;;15.68;66.45;100655.38;130320;1268;108843;-73
2022/07/29 04:17:00;;;;;;;5.70;3.10;;;;;;;16.06;66.02;100656.19;130342;1268;109163;-73
2022/07/29 04:20:07;;;;;;;3.90;3.00;;;;;;;16.49;66.08;100660.55;130330;1268;108970;-73
2022/07/29 04:23:13;;;;;;;4.70;3.00;;;;;;;16.76;65.66;100652.70;130327;1268;108729;-74
2022/07/29 04:26:19;;;;;;;3.50;2.80;;;;;;;16.94;65.13;100652.48;130338;1268;108859;-73
2022/07/29 04:29:24;;;;;;;3.90;2.80;;;;;;;17.11;65.12;100652.77;130344;1268;107733;-73
2022/07/29 04:32:29;;;;;;;4.10;3.00;;;;;;;17.36;65.36;100660.23;130309;1268;108976;-73
2022/07/29 04:35:38;;;;;;;4.50;2.80;;;;;;;17.59;64.96;100660.05;130320;1268;108710;-73
2022/07/29 04:38:44;;;;;;;3.90;3.00;;;;;;;17.77;64.64;100663.09;130348;1268;108724;-75
2022/07/29 04:41:50;;;;;;;4.50;3.00;;;;;;;17.95;64.71;100665.52;130290;1268;108732;-74
2022/07/29 04:44:55;;;;;;;3.00;2.60;;;;;;;18.14;64.69;100671.86;130310;1268;108722;-73
2022/07/29 04:48:01;;;;;;;4.40;2.90;;;;;;;18.25;64.45;100671.81;130273;1268;108885;-73
2022/07/29 04:51:06;;;;;;;3.30;2.80;;;;;;;18.35;64.70;100674.05;130322;1268;108978;-74
2022/07/29 04:54:11;;;;;;;3.80;3.00;;;;;;;18.52;64.64;100675.13;130329;1268;108695;-75
2022/07/29 04:57:17;;;;;;;4.90;3.10;;;;;;;18.67;64.52;100674.29;130283;1268;108664;-75
2022/07/29 05:00:22;;;;;;;3.60;2.90;;;;;;;18.85;64.55;100672.33;130311;1268;108903;-74
2022/07/29 05:03:28;;;;;;;3.00;2.70;;;;;;;19.06;64.10;100667.23;130321;1268;108810;-74
2022/07/29 05:06:33;;;;;;;5.10;3.00;;;;;;;19.20;63.99;100666.18;130296;1268;108932;-75
2022/07/29 05:09:39;;;;;;;4.50;2.90;;;;;;;19.29;63.65;100666.44;130294;1267;108957;-74
2022/07/29 05:12:44;;;;;;;3.40;2.60;;;;;;;19.28;63.68;100665.48;130323;1268;108649;-75
2022/07/29 05:15:49;;;;;;;3.30;2.70;;;;;;;19.34;63.58;100666.48;130249;1268;107644;-74
2022/07/29 05:18:55;;;;;;;5.10;2.90;;;;;;;19.44;63.39;100665.73;130284;1268;108859;-74
2022/07/29 05:22:00;;;;;;;3.60;2.80;;;;;;;19.55;63.07;100669.61;130382;1268;108811;-74
2022/07/29 05:25:08;;;;;;;2.70;2.20;;;;;;;19.60;62.91;100662.98;130387;1268;108849;-74
2022/07/29 05:28:15;;;;;;;2.80;2.50;;;;;;;19.67;62.94;100659.95;130359;1268;108865;-74
2022/07/29 05:31:20;;;;;;;3.10;2.50;;;;;;;19.76;62.80;100661.80;130364;1268;108703;-75
2022/07/29 05:34:25;;;;;;;2.90;2.60;;;;;;;19.88;62.71;100662.28;130339;1268;108856;-75
2022/07/29 05:37:31;;;;;;;5.00;2.60;;;;;;;19.95;62.50;100657.80;130428;1268;108972;-75
2022/07/29 05:40:36;;;;;;;4.00;2.90;;;;;;;20.00;62.33;100660.23;130377;1268;108723;-74
2022/07/29 05:43:41;;;;;;;3.90;2.80;;;;;;;20.03;62.06;100665.11;130298;1268;108882;-74
2022/07/29 05:46:47;;;;;;;3.80;2.80;;;;;;;20.07;62.10;100669.33;130316;1267;108945;-75
2022/07/29 05:49:52;;;;;;;4.50;2.70;;;;;;;20.08;61.76;100667.03;130183;1268;108749;-74
2022/07/29 05:52:58;;;;;;;3.30;2.30;;;;;;;20.05;61.71;100659.98;130358;1268;107452;-74
2022/07/29 05:56:05;;;;;;;4.90;2.70;;;;;;;19.96;61.80;100661.52;130390;1267;108780;-74
2022/07/29 05:59:11;;;;;;;4.20;2.40;;;;;;;19.93;61.74;100658.79;130333;1268;108896;-74
2022/07/29 06:02:16;;;;;;;3.60;2.50;;;;;;;19.95;61.69;100659.71;130331;1268;108851;-73
2022/07/29 06:05:22;;;;;;;4.70;2.50;;;;;;;19.95;61.53;100661.26;130370;1268;108759;-74
2022/07/29 06:08:27;;;;;;;5.20;2.60;;;;;;;19.90;61.33;100661.59;130322;1268;109213;-74
2022/07/29 06:11:33;;;;;;;3.70;2.20;;;;;;;19.91;61.54;100661.25;130342;1268;108853;-73
2022/07/29 06:14:38;;;;;;;4.00;2.00;;;;;;;19.95;61.53;100661.71;130343;1268;108587;-73
2022/07/29 06:17:44;;;;;;;3.90;2.60;;;;;;;19.97;61.19;100667.73;130333;1268;108747;-73
2022/07/29 06:20:49;;;;;;;5.00;2.00;;;;;;;19.97;61.16;100666.43;130340;1268;108868;-73
2022/07/29 06:23:54;;;;;;;2.80;2.20;;;;;;;19.99;61.11;100664.60;130366;1268;108859;-73
2022/07/29 06:27:00;;;;;;;3.60;2.00;;;;;;;19.97;60.84;100673.30;130241;1268;108868;-74
2022/07/29 06:30:07;;;;;;;4.60;2.20;;;;;;;19.91;60.98;100674.29;130237;1268;108986;-74
2022/07/29 06:33:18;;;;;;;3.30;2.00;;;;;;;19.90;61.00;100670.27;130236;1268;108853;-74
2022/07/29 06:36:24;;;;;;;3.00;2.40;;;;;;;19.92;60.95;100670.58;130391;1268;108867;-74
2022/07/29 06:39:29;;;;;;;4.30;2.10;;;;;;;19.95;60.90;100671.10;130353;1268;108840;-74
2022/07/29 06:42:35;;;;;;;4.20;2.50;;;;;;;19.98;60.85;100672.84;130355;1268;108823;-73
2022/07/29 06:45:42;;;;;;;4.70;2.00;;;;;;;20.04;60.72;100674.62;130347;1268;108632;-74
2022/07/29 06:48:48;;;;;;;3.20;2.00;;;;;;;20.08;60.69;100669.53;130298;1267;106890;-74
2022/07/29 06:51:54;;;;;;;3.60;1.80;;;;;;;20.12;60.70;100667.51;130306;1268;108746;-74
2022/07/29 06:54:59;;;;;;;3.10;1.80;;;;;;;20.16;60.38;100670.46;130305;1268;108752;-74
2022/07/29 06:58:05;;;;;;;2.90;1.90;;;;;;;20.19;60.43;100667.02;130300;1267;108704;-74
2022/07/29 07:01:10;;;;;;;2.50;1.70;;;;;;;20.24;60.45;100667.68;130323;1267;108972;-74
2022/07/29 07:04:15;;;;;;;2.90;1.90;;;;;;;20.31;60.21;100666.06;130343;1267;108691;-73
2022/07/29 07:07:21;;;;;;;1.90;1.70;;;;;;;20.37;60.13;100663.11;130403;1268;108955;-74
2022/07/29 07:10:26;;;;;;;2.90;1.90;;;;;;;20.42;59.95;100658.23;130350;1268;108704;-74
2022/07/29 07:13:34;;;;;;;5.10;2.00;;;;;;;20.48;59.90;100658.39;130342;1268;108554;-74
2022/07/29 07:16:39;;;;;;;2.00;1.50;;;;;;;20.51;59.85;100653.69;130291;1268;108720;-74
2022/07/29 07:19:45;;;;;;;3.80;1.90;;;;;;;20.54;59.71;100652.44;130326;1268;107689;-74
2022/07/29 07:22:50;;;;;;;3.30;1.60;;;;;;;20.56;59.52;100652.52;130314;1267;108666;-74
2022/07/29 07:25:55;;;;;;;2.20;1.50;;;;;;;20.60;59.46;100651.48;130334;1268;107681;-74
2022/07/29 07:29:01;;;;;;;2.80;1.60;;;;;;;20.67;59.48;100647.16;130230;1268;108806;-74
2022/07/29 07:32:07;;;;;;;1.90;1.60;;;;;;;20.76;59.43;100653.07;130302;1268;108735;-75
2022/07/29 07:35:13;;;;;;;2.80;1.60;;;;;;;20.83;59.03;100655.95;130326;1268;108914;-74
2022/07/29 07:38:18;;;;;;;3.60;1.50;;;;;;;20.88;58.89;100656.02;130342;1268;108730;-75
2022/07/29 07:41:23;;;;;;;1.90;1.40;;;;;;;20.92;58.89;100656.06;130335;1266;108849;-75
2022/07/29 07:44:29;;;;;;;2.50;1.70;;;;;;;21.00;58.90;100655.30;130293;1268;108744;-75
2022/07/29 07:47:34;;;;;;;2.40;1.80;;;;;;;21.07;58.73;100659.70;130259;1268;108822;-75
2022/07/29 07:50:39;;;;;;;2.00;1.70;;;;;;;21.12;58.46;100652.38;130279;1268;108620;-75
2022/07/29 07:53:49;;;;;;;2.30;1.60;;;;;;;21.15;58.27;100657.87;130236;1268;109009;-75
2022/07/29 07:56:54;;;;;;;2.20;1.60;;;;;;;21.20;57.94;100655.20;130268;1268;108930;-75
2022/07/29 08:00:00;;;;;;;3.80;1.60;;;;;;;21.26;57.98;100647.79;130268;1267;108734;-75
2022/07/29 08:03:05;;;;;;;2.30;1.60;;;;;;;21.34;57.44;100648.60;130289;1268;108897;-75
2022/07/29 08:06:10;;;;;;;1.70;1.40;;;;;;;21.40;56.99;100652.45;130312;1268;108763;-76
2022/07/29 08:09:16;;;;;;;2.00;1.60;;;;;;;21.48;56.81;100653.55;130273;1268;108765;-75
2022/07/29 08:12:21;;;;;;;3.80;1.30;;;;;;;21.58;57.03;100655.38;130271;1268;108739;-75
2022/07/29 08:15:27;;;;;;;2.00;1.40;;;;;;;21.70;56.46;100655.91;130286;1268;109008;-75
2022/07/29 08:18:33;;;;;;;4.00;1.60;;;;;;;21.80;56.50;100652.25;130273;1268;108751;-72
2022/07/29 08:21:38;;;;;;;2.80;1.10;;;;;;;21.94;56.37;100649.26;130228;1268;108958;-73
2022/07/29 08:24:46;;;;;;;2.20;1.40;;;;;;;22.06;55.60;100647.55;130233;1268;108665;-74
2022/07/29 08:27:52;;;;;;;1.80;1.10;;;;;;;22.16;54.92;100648.82;130218;1268;107757;-74
2022/07/29 08:30:58;;;;;;;2.50;1.10;;;;;;;22.24;54.84;100648.85;130221;1268;108707;-75
2022/07/29 08:34:03;;;;;;;1.20;0.90;;;;;;;22.35;55.00;100645.23;130072;1268;108802;-75
2022/07/29 08:37:09;;;;;;;1.80;1.10;;;;;;;22.45;54.27;100648.23;130277;1267;108050;-75
2022/07/29 08:40:15;;;;;;;2.60;1.20;;;;;;;22.54;53.48;100652.52;130294;1268;108877;-76
2022/07/29 08:43:20;;;;;;;1.60;1.10;;;;;;;22.72;54.30;100647.89;130302;1268;107725;-75
2022/07/29 08:46:26;;;;;;;1.90;1.10;;;;;;;22.93;53.77;100648.17;130270;1267;108774;-75
2022/07/29 08:49:31;;;;;;;3.80;1.10;;;;;;;23.14;53.90;100639.11;130204;1267;108992;-75
2022/07/29 08:52:41;;;;;;;2.30;0.90;;;;;;;23.36;53.36;100637.67;130301;1268;108831;-75
2022/07/29 08:55:49;;;;;;;2.90;1.00;;;;;;;23.62;53.24;100637.89;130226;1268;108660;-77
2022/07/29 08:58:55;;;;;;;3.10;1.30;;;;;;;23.74;52.81;100635.75;130202;1268;107791;-76
2022/07/29 09:02:02;;;;;;;3.30;1.20;;;;;;;23.84;52.16;100633.55;130283;1268;108646;-77
2022/07/29 09:05:09;;;;;;;3.90;1.20;;;;;;;23.91;51.88;100637.84;130287;1268;108571;-77
2022/07/29 09:08:15;;;;;;;2.30;1.10;;;;;;;23.99;51.81;100635.37;130330;1267;108884;-76
2022/07/29 09:11:20;;;;;;;3.80;1.00;;;;;;;24.02;52.03;100638.59;130328;1267;108543;-77
2022/07/29 09:14:26;;;;;;;3.30;1.10;;;;;;;24.00;51.68;100637.46;130209;1268;108784;-76
2022/07/29 09:17:46;;;;;;;2.60;1.20;;;;;;;24.03;51.39;100635.48;130208;1268;108741;-77
2022/07/29 09:24:17;;;;;;;1.80;0.80;;;;;;;24.20;51.29;100629.86;130245;1268;108773;-77
2022/07/29 09:27:26;;;;;;;1.20;0.90;;;;;;;24.32;51.03;100631.09;130234;1268;107534;-77
2022/07/29 09:30:31;;;;;;;1.90;0.90;;;;;;;24.53;50.83;100628.54;130241;1268;108810;-77
2022/07/29 09:33:39;;;;;;;2.20;1.30;;;;;;;24.76;49.88;100630.55;130210;1268;107596;-77
2022/07/29 09:36:46;;;;;;;1.80;1.20;;;;;;;24.95;49.41;100634.86;130220;1268;108118;-76
2022/07/29 09:39:52;;;;;;;1.30;1.00;;;;;;;25.13;49.64;100624.83;130234;1268;108777;-76
2022/07/29 09:42:58;;;;;;;1.80;0.80;;;;;;;25.35;49.53;100618.98;130203;1268;108821;-77
2022/07/29 09:46:14;;;;;;;1.90;1.00;;;;;;;25.54;48.53;100620.11;130235;1268;108951;-74
2022/07/29 09:49:19;;;;;;;1.30;0.90;;;;;;;25.56;48.34;100613.85;130263;1268;108763;-74
2022/07/29 09:52:25;;;;;;;1.20;0.80;;;;;;;25.57;48.13;100618.14;130204;1268;108719;-73
2022/07/29 09:55:30;;;;;;;2.20;0.70;;;;;;;25.56;47.94;100610.09;130247;1268;108878;-73
2022/07/29 09:58:36;;;;;;;3.40;1.00;;;;;;;25.59;47.73;100611.43;130210;1266;108031;-73
2022/07/29 10:01:41;;;;;;;1.70;0.80;;;;;;;25.57;47.97;100608.60;130221;1268;108787;-73
2022/07/29 10:04:47;;;;;;;2.20;0.80;;;;;;;25.53;47.96;100608.89;130239;1267;108826;-72
2022/07/29 10:07:55;;;;;;;2.50;0.80;;;;;;;25.50;47.34;100605.27;130225;1268;108740;-74
2022/07/29 10:11:11;;;;;;;3.30;1.00;;;;;;;25.44;46.80;100609.98;130192;1268;108881;-73
2022/07/29 10:14:17;;;;;;;2.10;1.00;;;;;;;25.33;46.92;100605.42;130216;1268;108422;-72
2022/07/29 10:17:24;;;;;;;1.50;0.80;;;;;;;25.20;46.99;100600.09;130238;1268;109111;-75
2022/07/29 10:20:30;;;;;;;1.80;0.80;;;;;;;25.08;46.84;100602.45;130321;1268;108655;-74
2022/07/29 10:23:36;;;;;;;2.20;1.00;;;;;;;24.98;46.84;100595.67;130257;1268;108676;-74
2022/07/29 10:26:42;;;;;;;1.60;0.90;;;;;;;24.87;46.64;100594.24;130336;1267;109055;-74
2022/07/29 10:29:48;;;;;;;2.60;1.00;;;;;;;24.88;46.35;100598.14;130286;1268;109051;-74
2022/07/29 10:33:24;;;;;;;2.40;0.90;;;;;;;24.86;45.96;100593.14;130316;1267;108698;-75
2022/07/29 10:36:48;;;;;;;1.30;0.90;;;;;;;24.89;45.36;100593.97;130313;1268;108815;-74
2022/07/29 10:41:25;;;;;;;4.20;1.10;;;;;;;24.93;45.70;100589.18;130326;1267;108695;-74
2022/07/29 10:43:35;;;;;;;1.70;1.00;;;;;;;24.99;45.03;100581.67;130348;1267;109084;-74
2022/07/29 10:46:42;;;;;;;2.40;1.00;;;;;;;24.99;45.46;100580.02;130305;1268;108717;-74
2022/07/29 10:49:58;;;;;;;1.20;0.90;;;;;;;24.97;44.47;100585.71;130336;1267;108748;-74
2022/07/29 10:53:04;;;;;;;1.00;0.80;;;;;;;25.01;45.16;100583.73;130299;1265;107586;-74
2022/07/29 10:56:26;;;;;;;1.50;0.60;;;;;;;25.16;44.71;100582.08;130324;1268;108444;-74
2022/07/29 10:59:31;;;;;;;1.80;0.90;;;;;;;25.24;43.77;100585.77;130367;1267;107878;-74
2022/07/29 11:02:51;;;;;;;2.10;1.00;;;;;;;25.38;44.03;100579.04;130050;1267;333377;-74
2022/07/29 11:05:58;;;;;;;1.70;0.90;;;;;;;25.49;44.67;100576.24;130367;1268;108547;-74
2022/07/29 11:09:20;;;;;;;2.20;0.90;;;;;;;25.56;44.48;100572.93;130309;1268;108760;-74
2022/07/29 11:12:48;;;;;;;1.80;0.90;;;;;;;25.47;44.27;100572.49;130397;1268;108903;-74
2022/07/29 11:15:58;;;;;;;4.10;0.90;;;;;;;25.40;43.44;100571.32;130307;1268;108832;-74
2022/07/29 11:19:21;;;;;;;1.60;0.80;;;;;;;25.11;42.16;100570.02;130254;1267;108771;-73
2022/07/29 11:22:37;;;;;;;1.10;0.80;;;;;;;24.96;42.64;100566.91;130353;1268;108781;-73
2022/07/29 11:25:43;;;;;;;2.00;1.00;;;;;;;24.99;43.00;100562.11;130338;1267;108834;-73
2022/07/29 11:28:59;;;;;;;1.30;0.80;;;;;;;25.01;43.50;100563.64;130291;1266;107934;-73
2022/07/29 11:32:14;;;;;;;1.90;0.80;;;;;;;25.09;44.37;100558.71;130314;1268;108908;-73
2022/07/29 11:35:23;;;;;;;1.50;0.80;;;;;;;25.16;43.44;100560.27;130363;1268;108927;-73
2022/07/29 11:38:29;;;;;;;1.50;0.80;;;;;;;25.21;42.61;100551.03;130344;1267;108894;-73
2022/07/29 11:41:36;;;;;;;1.10;0.80;;;;;;;25.23;42.76;100552.72;130257;1267;108902;-73
2022/07/29 11:48:20;;;;;;;1.70;0.80;;;;;;;25.00;42.08;100553.52;126311;1305;636118;-74
2022/07/29 11:51:34;;;;;;;1.20;0.80;;;;;;;25.01;42.85;100549.16;129246;1280;107144;-77
2022/07/29 11:54:43;;;;;;;1.00;0.70;;;;;;;25.06;42.18;100550.47;129121;1281;108514;-72
2022/07/29 11:57:52;;;;;;;2.30;0.80;;;;;;;25.15;42.39;100547.02;129288;1281;108733;-73
2022/07/29 12:00:57;;;;;;;1.40;0.80;;;;;;;25.27;42.42;100545.48;129074;1277;350083;-72
2022/07/29 12:04:07;;;;;;;1.60;0.70;;;;;;;25.36;43.22;100546.65;129451;1277;108696;-73
2022/07/29 12:07:12;;;;;;;2.00;0.80;;;;;;;25.48;42.65;100539.06;129414;1280;108963;-73
2022/07/29 12:10:17;;;;;;;1.00;0.90;;;;;;;25.58;43.06;100536.02;129345;1280;108738;-73
2022/07/29 12:13:24;;;;;;;1.40;0.90;;;;;;;25.62;42.42;100537.78;129315;1281;108921;-72
2022/07/29 12:16:38;;;;;;;3.30;1.10;;;;;;;25.62;42.33;100537.67;129262;1280;108838;-73
2022/07/29 12:19:45;;;;;;;2.30;0.90;;;;;;;25.62;41.78;100535.05;129236;1280;108682;-73
2022/07/29 12:22:53;;;;;;;1.60;0.70;;;;;;;25.63;41.92;100532.84;129386;1280;108746;-73
2022/07/29 12:26:00;;;;;;;1.90;0.90;;;;;;;25.71;42.15;100529.85;129448;1280;108962;-73
2022/07/29 12:29:06;;;;;;;2.10;0.80;;;;;;;25.76;41.38;100534.04;129307;1280;108971;-75
2022/07/29 12:32:11;;;;;;;2.30;0.90;;;;;;;25.77;41.88;100535.98;130337;1271;108878;-72
2022/07/29 12:35:20;;;;;;;2.00;0.90;;;;;;;25.84;41.17;100534.29;129983;1271;108805;-73
2022/07/29 12:38:26;;;;;;;1.40;0.70;;;;;;;25.90;41.49;100536.14;129995;1271;108790;-73
2022/07/29 12:41:32;;;;;;;2.00;0.80;;;;;;;25.93;41.93;100531.89;129930;1271;108848;-74
2022/07/29 12:44:50;;;;;;;1.00;0.70;;;;;;;25.88;40.70;100535.18;129999;1271;108993;-75
2022/07/29 12:47:55;;;;;;;2.80;0.90;;;;;;;25.82;41.10;100529.01;129913;1271;108641;-73
2022/07/29 12:51:03;;;;;;;1.10;0.80;;;;;;;25.76;40.84;100525.59;130074;1271;108649;-73
2022/07/29 12:54:13;;;;;;;3.20;1.40;;;;;;;25.68;41.16;100531.66;129999;1271;109652;-73
2022/07/29 12:57:21;;;;;;;2.80;0.80;;;;;;;25.63;40.76;100520.21;130002;1271;109009;-72
2022/07/29 13:00:27;;;;;;;1.90;0.80;;;;;;;25.62;40.88;100515.66;130085;1271;108618;-73
2022/07/29 13:03:45;;;;;;;2.10;0.80;;;;;;;25.58;40.82;100513.19;129913;1271;108779;-73
2022/07/29 13:06:58;;;;;;;3.30;1.10;;;;;;;25.56;40.89;100510.24;129981;1271;108152;-73
2022/07/29 13:10:15;;;;;;;2.80;0.80;;;;;;;25.58;40.56;100510.95;130141;1271;109560;-73
2022/07/29 13:13:21;;;;;;;2.50;0.90;;;;;;;25.61;40.90;100512.75;129941;1271;108750;-73
2022/07/29 13:16:26;;;;;;;1.10;0.70;;;;;;;25.60;40.49;100516.34;129947;1271;108996;-73
2022/07/29 13:19:41;;;;;;;1.80;0.90;;;;;;;25.62;40.85;100510.69;129964;1271;108962;-73
2022/07/29 13:22:50;;;;;;;1.90;0.90;;;;;;;25.63;40.81;100509.33;130047;1271;109229;-73
2022/07/29 13:25:55;;;;;;;2.10;1.00;;;;;;;25.69;40.26;100501.62;130022;1271;108502;-73
2022/07/29 13:29:01;;;;;;;1.90;1.00;;;;;;;25.70;40.40;100496.48;129975;1271;108879;-74
2022/07/29 13:32:07;;;;;;;2.00;0.80;;;;;;;25.65;40.45;100493.09;129969;1274;109409;-73
2022/07/29 13:35:13;;;;;;;3.30;0.80;;;;;;;25.65;40.92;100489.80;130061;1271;109017;-73
2022/07/29 13:38:18;;;;;;;1.10;0.80;;;;;;;25.64;41.33;100486.08;130142;1271;108913;-73
2022/07/29 13:41:24;;;;;;;1.80;0.80;;;;;;;25.60;41.31;100486.99;130141;1271;108731;-73
2022/07/29 13:44:29;;;;;;;1.60;0.90;;;;;;;25.59;40.97;100485.89;130121;1271;108836;-73
2022/07/29 13:47:34;;;;;;;2.80;1.10;;;;;;;25.61;41.21;100482.73;129954;1271;108850;-73
2022/07/29 13:50:40;;;;;;;1.70;0.80;;;;;;;25.61;40.87;100485.85;129948;1271;108542;-73
2022/07/29 13:53:45;;;;;;;2.20;0.90;;;;;;;25.65;40.51;100475.77;129959;1271;108818;-73
2022/07/29 13:56:52;;;;;;;2.40;0.90;;;;;;;25.68;40.43;100476.58;130058;1271;107415;-73
2022/07/29 13:59:58;;;;;;;1.40;0.90;;;;;;;25.62;40.88;100472.21;129817;1271;109085;-74
2022/07/29 14:03:03;;;;;;;1.80;0.90;;;;;;;25.61;41.03;100478.46;130122;1271;108738;-74
2022/07/29 14:06:09;;;;;;;2.40;0.80;;;;;;;25.57;40.95;100477.41;130059;1271;108623;-74
2022/07/29 14:09:14;;;;;;;2.90;1.00;;;;;;;25.47;40.32;100476.23;129996;1271;108834;-73
2022/07/29 14:12:19;;;;;;;1.80;0.70;;;;;;;25.39;40.65;100471.09;130007;1268;109213;-73
2022/07/29 14:15:25;;;;;;;0.70;0.70;;;;;;;25.34;40.40;100470.92;130097;1271;109013;-73
2022/07/29 14:18:31;;;;;;;2.50;1.30;;;;;;;25.31;40.96;100468.61;130214;1271;108957;-76
2022/07/29 14:21:36;;;;;;;1.50;0.90;;;;;;;25.29;40.66;100465.70;129983;1271;108718;-76